ADDS METAR Data INFO
IDs: Format: Raw Decoded Include TAF

Data at: 0604 UTC 25 Jun 2018

KJAC 250556Z AUTO 02003KT 10SM CLR 10/06 A3022 RMK AO2 SLP198 T01000061 10194 20078 50009
KJAC 250456Z AUTO 03004KT 10SM CLR 08/06 A3022 RMK AO2 SLP207 T00780056
KJAC 250356Z AUTO 00000KT 10SM CLR 12/06 A3021 RMK AO2 SLP194 T01220061
KJAC 250256Z 31006KT 10SM CLR 15/06 A3019 RMK AO2 SLP187 T01500056 55000
KJAC 250156Z 28008KT 10SM CLR 18/06 A3018 RMK AO2 SLP183 T01830061
KJAC 250056Z 30007KT 10SM FEW060 19/06 A3018 RMK AO2 SLP185 T01940056
KJAC 242356Z 27007KT 10SM CLR 20/06 A3019 RMK AO2 SLP192 T02000056 10206 20150 58002
KJAC 242256Z 12006KT 10SM OVC055 19/05 A3019 RMK AO2 SLP191 T01940050
KJAC 242156Z VRB04KT 10SM BKN055 BKN070 20/05 A3020 RMK AO2 SLP190 T02000050
KJAC 242056Z VRB05KT 10SM CLR 18/05 A3019 RMK AO2 SLP195 T01780050 58004
KJAC 241956Z 26006KT 10SM CLR 17/05 A3020 RMK AO2 SLP199 T01720050
KJAC 241856Z VRB04KT 10SM CLR 17/05 A3020 RMK AO2 SLP198 T01720050
KJAC 241756Z VRB04KT 10SM CLR 15/03 A3021 RMK AO2 SLP207 T01500033 10156 20033 56004
KJAC 241656Z 06008KT 10SM CLR 14/03 A3021 RMK AO2 SLP206 T01440033
KJAC 241556Z 04008KT 10SM CLR 13/04 A3021 RMK AO2 SLP207 T01280044
KJAC 241456Z 03008KT 10SM CLR 11/05 A3022 RMK AO2 SLP212 T01060050 51010
KJAC 241356Z 00000KT 10SM SCT015 08/06 A3021 RMK AO2 SLP212 T00830056
KJAC 241334Z 00000KT 10SM BKN015 07/05 A3021 RMK AO2
KJAC 241256Z 29003KT 10SM FEW049 06/04 A3020 RMK AO2 SLP218 T00560039
KJAC 241156Z AUTO 00000KT 10SM CLR 03/03 A3018 RMK AO2 SLP216 60000 70007 T00330028 10061 20033 53009
KJAC 241056Z AUTO 00000KT 10SM SCT047 OVC060 05/04 A3016 RMK AO2 SLP207 T00500039
KJAC 240956Z AUTO 00000KT 10SM FEW047 BKN055 OVC070 05/04 A3015 RMK AO2 RAE14 SLP203 P0000 T00500044
KJAC 240856Z AUTO 09004KT 10SM -RA BKN048 OVC060 06/04 A3015 RMK AO2 RAB34 SLP193 P0000 60000 T00560044 53003
KJAC 240756Z AUTO 01007KT 10SM FEW049 OVC065 05/04 A3014 RMK AO2 SLP183 T00500039
KJAC 240656Z AUTO 11004KT 10SM BKN065 BKN110 06/04 A3014 RMK AO2 SLP174 T00560039 402000033
KJAC 240556Z AUTO 00000KT 10SM FEW110 05/03 A3014 RMK AO2 SLP172 T00500033 10111 20050 51009
KJAC 240456Z AUTO 00000KT 10SM FEW065 06/04 A3013 RMK AO2 SLP169 T00610044
KJAC 240356Z AUTO 03004KT 10SM BKN070 08/05 A3013 RMK AO2 SLP168 T00830050
KJAC 240256Z 04004KT 10SM OVC055 09/05 A3010 RMK AO2 SLP163 T00890050 53012
KJAC 240156Z 00000KT 10SM CLR 11/06 A3009 RMK AO2 SLP167 T01060056
KJAC 240056Z 24005KT 10SM CLR 10/05 A3007 RMK AO2 SLP164 T01000050
KJAC 232356Z 22009KT 10SM FEW090 09/06 A3006 RMK AO2 SLP165 60007 T00940056 10200 20072 50014
KJAC 232256Z 23013G19KT 10SM FEW013 SCT042 BKN050 08/05 A3008 RMK AO2 PK WND 22041/2218 LTG DSNT N RAE51 SLP176 P0005 T00780050
KJAC 232234Z 21016G20KT 9SM -RA BKN033 OVC043 07/05 A3008 RMK AO2 PK WND 22041/2218 LTG DSNT N P0005
KJAC 232226Z 20020G41KT 2SM -RA BR OVC036 07/05 A3007 RMK AO2 PK WND 22041/2218 P0005
KJAC 232156Z 25012G27KT 6SM -RA FEW029 BKN050 OVC060 09/04 A3008 RMK AO2 PK WND 30029/2141 LTG DSNT N TSB03E23 SLP172 P0002 T00890039
KJAC 232129Z 31014KT 10SM -RA OVC060 10/03 A3005 RMK AO2 PK WND 30028/2112 LTG DSNT N TSB03E23 P0000
KJAC 232109Z 30018G24KT 10SM -TSRA OVC060 11/03 A3003 RMK AO2 TSB03 P0000
KJAC 232056Z 32020G31KT 10SM -RA BKN065 OVC080 12/03 A3001 RMK AO2 PK WND 31031/2052 SLP144 P0000 60000 T01170028 53008
KJAC 231956Z 31007KT 10SM -RA SCT065 15/04 A2999 RMK AO2 WSHFT 1855 LTG DSNT W RAB47 SLP124 P0000 T01500039
KJAC 231915Z 31017G22KT 10SM FEW090 18/04 A2998 RMK AO2 WSHFT 1855 LTG DSNT NE
KJAC 231856Z 32011G19KT 10SM FEW075 SCT090 18/04 A2999 RMK AO2 LTG DSNT NE AND NW RAB42E54 SLP114 P0000 T01780039